Time;durP1;ratioP1;P1;durP2;ratioP2;P2;SDS_P1;SDS_P2;PMS_P1;PMS_P2;Temp;Humidity;BMP_temperature;BMP_pressure;BME280_temperature;BME280_humidity;BME280_pressure;Samples;Min_cycle;Max_cycle;Signal;HPM_P1;HPM_P2
2022/10/04 00:01:56;;;;;;;;;;;;;;;;;;5064638;28;1001;-79
2022/10/04 00:04:24;;;;;;;;;;;;;;;;;;5064074;28;1018;-79
2022/10/04 00:06:54;;;;;;;;;;;;;;;;;;5064392;28;890;-79
2022/10/04 00:09:22;;;;;;;;;;;;;;;;;;5064308;28;1184;-79
2022/10/04 00:11:48;;;;;;;;;;;;;;;;;;5064452;28;819;-79
2022/10/04 00:14:30;;;;;;;;;;;;;;;;;;5064200;28;957;-79
2022/10/04 00:16:57;;;;;;;;;;;;;;;;;;5064175;28;956;-79
2022/10/04 00:19:37;;;;;;;;;;;;;;;;;;5064016;28;1219;-79
2022/10/04 00:22:09;;;;;;;;;;;;;;;;;;5064242;28;795;-80
2022/10/04 00:24:35;;;;;;;;;;;;;;;;;;5063492;28;863;-79
2022/10/04 00:27:20;;;;;;;;;;;;;;;;;;5063857;28;787;-79
2022/10/04 00:30:00;;;;;;;;;;;;;;;;;;5063471;28;922;-79
2022/10/04 00:32:29;;;;;;;;;;;;;;;;;;5063881;28;928;-80
2022/10/04 00:34:55;;;;;;;;;;;;;;;;;;5062213;28;909;-79
2022/10/04 00:37:21;;;;;;;;;;;;;;;;;;5063710;28;1180;-79
2022/10/04 00:39:54;;;;;;;;;;;;;;;;;;5077208;22;3677;-69
2022/10/04 00:42:38;;;;;;;;;;;;;;;;;;5063520;28;819;-69
2022/10/04 00:45:10;;;;;;;;;;;;;;;;;;5062799;28;894;-69
2022/10/04 00:47:38;;;;;;;;;;;;;;;;;;5063394;28;1048;-69
2022/10/04 00:50:12;;;;;;;;;;;;;;;;;;5063066;28;1185;-69
2022/10/04 00:52:41;;;;;;;;;;;;;;;;;;5063228;28;922;-71
2022/10/04 00:55:08;;;;;;;;;;;;;;;;;;5062804;28;918;-71
2022/10/04 00:57:35;;;;;;;;;;;;;;;;;;5063306;28;847;-71
2022/10/04 01:00:02;;;;;;;;;;;;;;;;;;5062727;28;1890;-69
2022/10/04 01:02:34;;;;;;;;;;;;;;;;;;5063024;28;878;-69
2022/10/04 01:05:02;;;;;;;;;;;;;;;;;;5062615;28;905;-69
2022/10/04 01:07:34;;;;;;;;;;;;;;;;;;5062896;28;1742;-69
2022/10/04 01:10:18;;;;;;;;;;;;;;;;;;5062758;28;1227;-69
2022/10/04 01:12:52;;;;;;;;;;;;;;;;;;5063032;28;974;-69
2022/10/04 01:15:20;;;;;;;;;;;;;;;;;;5062630;28;973;-69
2022/10/04 01:18:04;;;;;;;;;;;;;;;;;;5062681;28;894;-69
2022/10/04 01:20:53;;;;;;;;;;;;;;;;;;5063047;28;1948;-71
2022/10/04 01:23:29;;;;;;;;;;;;;;;;;;5043548;28;1334;-71
2022/10/04 01:25:55;;;;;;;;;;;;;;;;;;5062275;28;996;-71
2022/10/04 01:28:20;;;;;;;;;;;;;;;;;;5044599;28;1151;-71
2022/10/04 01:30:45;;;;;;;;;;;;;;;;;;5062478;28;921;-71
2022/10/04 01:33:11;;;;;;;;;;;;;;;;;;5062523;28;913;-71
2022/10/04 01:35:36;;;;;;;;;;;;;;;;;;5062137;28;902;-69
2022/10/04 01:38:05;;;;;;;;;;;;;;;;;;5062335;28;1278;-69
2022/10/04 01:40:30;;;;;;;;;;;;;;;;;;5062238;28;1898;-69
2022/10/04 01:43:00;;;;;;;;;;;;;;;;;;5062513;28;771;-69
2022/10/04 01:45:31;;;;;;;;;;;;;;;;;;5061604;28;969;-70
2022/10/04 01:48:01;;;;;;;;;;;;;;;;;;5062228;28;1231;-70
2022/10/04 01:50:32;;;;;;;;;;;;;;;;;;5062507;28;803;-69
2022/10/04 01:53:13;;;;;;;;;;;;;;;;;;5062176;28;835;-70
2022/10/04 01:55:40;;;;;;;;;;;;;;;;;;5061759;28;866;-70
2022/10/04 01:58:13;;;;;;;;;;;;;;;;;;5062100;28;1236;-70
2022/10/04 02:00:42;;;;;;;;;;;;;;;;;;5061965;28;1889;-69
2022/10/04 02:03:11;;;;;;;;;;;;;;;;;;5044249;28;867;-70
2022/10/04 02:05:51;;;;;;;;;;;;;;;;;;5061756;28;890;-70
2022/10/04 02:08:23;;;;;;;;;;;;;;;;;;5061918;28;1235;-69
2022/10/04 02:10:48;;;;;;;;;;;;;;;;;;5061874;28;965;-69
2022/10/04 02:13:17;;;;;;;;;;;;;;;;;;5061950;28;933;-69
2022/10/04 02:15:43;;;;;;;;;;;;;;;;;;5061494;28;1044;-70
2022/10/04 02:18:12;;;;;;;;;;;;;;;;;;5061594;28;1333;-70
2022/10/04 02:20:39;;;;;;;;;;;;;;;;;;5061890;28;1886;-70
2022/10/04 02:23:05;;;;;;;;;;;;;;;;;;5062177;28;779;-70
2022/10/04 02:25:30;;;;;;;;;;;;;;;;;;5061487;28;854;-70
2022/10/04 02:27:55;;;;;;;;;;;;;;;;;;5061555;28;1144;-70
2022/10/04 02:30:23;;;;;;;;;;;;;;;;;;5061380;28;826;-70
2022/10/04 02:32:58;;;;;;;;;;;;;;;;;;5061569;28;949;-70
2022/10/04 02:35:26;;;;;;;;;;;;;;;;;;5061406;28;1311;-69
2022/10/04 02:38:17;;;;;;;;;;;;;;;;;;5061264;28;1219;-70
2022/10/04 02:40:58;;;;;;;;;;;;;;;;;;5059162;28;1894;-70
2022/10/04 02:43:44;;;;;;;;;;;;;;;;;;5061646;28;822;-70
2022/10/04 02:46:26;;;;;;;;;;;;;;;;;;5060814;28;1171;-70
2022/10/04 02:48:54;;;;;;;;;;;;;;;;;;5061286;28;1147;-70
2022/10/04 02:51:24;;;;;;;;;;;;;;;;;;5061436;28;874;-70
2022/10/04 02:53:55;;;;;;;;;;;;;;;;;;5061250;28;803;-70
2022/10/04 02:56:21;;;;;;;;;;;;;;;;;;5061093;28;846;-70
2022/10/04 02:58:46;;;;;;;;;;;;;;;;;;5060103;28;1235;-70
2022/10/04 03:01:35;;;;;;;;;;;;;;;;;;5061419;28;1897;-70
2022/10/04 03:04:01;;;;;;;;;;;;;;;;;;5061105;28;937;-70
2022/10/04 03:06:28;;;;;;;;;;;;;;;;;;5060774;28;834;-70
2022/10/04 03:09:01;;;;;;;;;;;;;;;;;;5043095;28;1199;-69
2022/10/04 03:11:30;;;;;;;;;;;;;;;;;;5061150;28;854;-70
2022/10/04 03:13:57;;;;;;;;;;;;;;;;;;5061105;28;982;-69
2022/10/04 03:16:24;;;;;;;;;;;;;;;;;;5060780;28;993;-70
2022/10/04 03:18:50;;;;;;;;;;;;;;;;;;5060999;28;1270;-70
2022/10/04 03:21:17;;;;;;;;;;;;;;;;;;5060920;28;1901;-70
2022/10/04 03:23:42;;;;;;;;;;;;;;;;;;5060786;28;945;-69
2022/10/04 03:26:13;;;;;;;;;;;;;;;;;;5060667;28;997;-70
2022/10/04 03:28:38;;;;;;;;;;;;;;;;;;5060476;28;1169;-70
2022/10/04 03:31:04;;;;;;;;;;;;;;;;;;5060976;28;811;-70
2022/10/04 03:33:29;;;;;;;;;;;;;;;;;;5043067;28;1425;-71
2022/10/04 03:35:56;;;;;;;;;;;;;;;;;;5060631;28;929;-70
2022/10/04 03:38:22;;;;;;;;;;;;;;;;;;5060681;28;1192;-70
2022/10/04 03:40:51;;;;;;;;;;;;;;;;;;5060564;28;1975;-71
2022/10/04 03:43:17;;;;;;;;;;;;;;;;;;5060602;28;823;-70
2022/10/04 03:45:42;;;;;;;;;;;;;;;;;;5060428;28;913;-70
2022/10/04 03:48:11;;;;;;;;;;;;;;;;;;5060413;28;1200;-70
2022/10/04 03:50:40;;;;;;;;;;;;;;;;;;5060620;28;890;-70
2022/10/04 03:53:16;;;;;;;;;;;;;;;;;;5060634;28;925;-70
2022/10/04 03:55:43;;;;;;;;;;;;;;;;;;5060316;28;894;-70
2022/10/04 03:58:09;;;;;;;;;;;;;;;;;;5060876;28;1168;-70
2022/10/04 04:00:37;;;;;;;;;;;;;;;;;;5060474;28;1975;-70
2022/10/04 04:03:04;;;;;;;;;;;;;;;;;;5060539;28;1033;-70
2022/10/04 04:05:39;;;;;;;;;;;;;;;;;;5060209;28;807;-70
2022/10/04 04:08:13;;;;;;;;;;;;;;;;;;5060560;28;1198;-70
2022/10/04 04:10:41;;;;;;;;;;;;;;;;;;5063691;28;831;-70
2022/10/04 04:13:07;;;;;;;;;;;;;;;;;;5063886;28;909;-70
2022/10/04 04:15:32;;;;;;;;;;;;;;;;;;5063187;28;870;-70
2022/10/04 04:18:02;;;;;;;;;;;;;;;;;;5064032;28;1168;-70
2022/10/04 04:20:29;;;;;;;;;;;;;;;;;;5061773;28;1910;-71
2022/10/04 04:23:00;;;;;;;;;;;;;;;;;;5063641;28;1036;-72
2022/10/04 04:25:26;;;;;;;;;;;;;;;;;;5063486;28;973;-71
2022/10/04 04:27:55;;;;;;;;;;;;;;;;;;5063628;28;1192;-69
2022/10/04 04:30:20;;;;;;;;;;;;;;;;;;5063429;28;791;-69
2022/10/04 04:32:49;;;;;;;;;;;;;;;;;;5063697;28;717;-69
2022/10/04 04:35:22;;;;;;;;;;;;;;;;;;5063121;28;846;-69
2022/10/04 04:38:01;;;;;;;;;;;;;;;;;;5063538;28;1324;-69
2022/10/04 04:40:27;;;;;;;;;;;;;;;;;;5063378;28;1965;-69
2022/10/04 04:42:56;;;;;;;;;;;;;;;;;;5063593;28;791;-69
2022/10/04 04:45:28;;;;;;;;;;;;;;;;;;5062986;28;772;-69
2022/10/04 04:47:57;;;;;;;;;;;;;;;;;;5063292;28;1199;-69
2022/10/04 04:50:24;;;;;;;;;;;;;;;;;;5063149;28;996;-69
2022/10/04 04:53:12;;;;;;;;;;;;;;;;;;5063213;28;909;-70
2022/10/04 04:55:40;;;;;;;;;;;;;;;;;;5057139;28;1852;-70
2022/10/04 04:58:07;;;;;;;;;;;;;;;;;;5063088;28;1286;-70
2022/10/04 05:00:37;;;;;;;;;;;;;;;;;;5062878;28;1890;-70
2022/10/04 05:03:03;;;;;;;;;;;;;;;;;;5063237;28;875;-70
2022/10/04 05:05:32;;;;;;;;;;;;;;;;;;5062906;28;1430;-69
2022/10/04 05:08:10;;;;;;;;;;;;;;;;;;5062702;28;1187;-70
2022/10/04 05:10:36;;;;;;;;;;;;;;;;;;5063106;28;894;-69
2022/10/04 05:13:03;;;;;;;;;;;;;;;;;;5062700;28;1020;-69
2022/10/04 05:15:31;;;;;;;;;;;;;;;;;;5062852;28;819;-69
2022/10/04 05:17:58;;;;;;;;;;;;;;;;;;5062936;28;1294;-69
2022/10/04 05:20:24;;;;;;;;;;;;;;;;;;5061958;28;1959;-69
2022/10/04 05:22:50;;;;;;;;;;;;;;;;;;5062803;28;882;-69
2022/10/04 05:25:25;;;;;;;;;;;;;;;;;;5062427;28;827;-69
2022/10/04 05:27:53;;;;;;;;;;;;;;;;;;5062880;28;1235;-69
2022/10/04 05:30:27;;;;;;;;;;;;;;;;;;5062624;28;807;-69
2022/10/04 05:33:03;;;;;;;;;;;;;;;;;;5062829;28;803;-69
2022/10/04 05:35:37;;;;;;;;;;;;;;;;;;5062301;28;1000;-70
2022/10/04 05:38:20;;;;;;;;;;;;;;;;;;5062235;28;1286;-70
2022/10/04 05:40:46;;;;;;;;;;;;;;;;;;5062525;28;1941;-70
2022/10/04 05:43:28;;;;;;;;;;;;;;;;;;5062286;28;787;-69
2022/10/04 05:46:12;;;;;;;;;;;;;;;;;;5062317;28;902;-70
2022/10/04 05:48:38;;;;;;;;;;;;;;;;;;5062094;28;1188;-70
2022/10/04 05:51:11;;;;;;;;;;;;;;;;;;5062195;28;989;-69
2022/10/04 05:53:37;;;;;;;;;;;;;;;;;;5062214;28;827;-70
2022/10/04 05:56:28;;;;;;;;;;;;;;;;;;5061760;28;989;-69
2022/10/04 05:59:12;;;;;;;;;;;;;;;;;;5059543;28;1169;-70
2022/10/04 06:01:56;;;;;;;;;;;;;;;;;;5061938;28;1965;-69
2022/10/04 06:04:24;;;;;;;;;;;;;;;;;;5062182;28;779;-69
2022/10/04 06:06:53;;;;;;;;;;;;;;;;;;5062502;28;854;-69
2022/10/04 06:09:44;;;;;;;;;;;;;;;;;;5061751;28;1169;-69
2022/10/04 06:12:16;;;;;;;;;;;;;;;;;;5062219;28;870;-69
2022/10/04 06:14:47;;;;;;;;;;;;;;;;;;5061835;28;985;-69
2022/10/04 06:17:31;;;;;;;;;;;;;;;;;;5061817;28;803;-69
2022/10/04 06:20:08;;;;;;;;;;;;;;;;;;5043727;28;1889;-69
2022/10/04 06:22:42;;;;;;;;;;;;;;;;;;5061777;28;905;-69
2022/10/04 06:25:10;;;;;;;;;;;;;;;;;;5061764;28;772;-69
2022/10/04 06:28:02;;;;;;;;;;;;;;;;;;5061876;28;1111;-69
2022/10/04 06:30:30;;;;;;;;;;;;;;;;;;5045598;28;1091;-69
2022/10/04 06:32:55;;;;;;;;;;;;;;;;;;5061533;28;818;-69
2022/10/04 06:35:33;;;;;;;;;;;;;;;;;;5061472;28;842;-69
2022/10/04 06:38:07;;;;;;;;;;;;;;;;;;5061341;28;1227;-69
2022/10/04 06:40:44;;;;;;;;;;;;;;;;;;5074795;22;3753;-66
2022/10/04 06:43:09;;;;;;;;;;;;;;;;;;5061434;28;853;-65
2022/10/04 06:45:40;;;;;;;;;;;;;;;;;;5061209;28;826;-66
2022/10/04 06:48:05;;;;;;;;;;;;;;;;;;5061614;28;924;-66
2022/10/04 06:50:46;;;;;;;;;;;;;;;;;;5061340;28;1192;-66
2022/10/04 06:53:29;;;;;;;;;;;;;;;;;;5061389;28;850;-65
2022/10/04 06:56:13;;;;;;;;;;;;;;;;;;5043220;28;929;-66
2022/10/04 06:58:57;;;;;;;;;;;;;;;;;;5061454;28;1179;-65
2022/10/04 07:01:22;;;;;;;;;;;;;;;;;;5061079;28;1972;-63
2022/10/04 07:03:51;;;;;;;;;;;;;;;;;;5061086;28;889;-63
2022/10/04 07:06:22;;;;;;;;;;;;;;;;;;5061399;28;838;-63
2022/10/04 07:08:49;;;;;;;;;;;;;;;;;;5060818;28;1203;-63
2022/10/04 07:11:29;;;;;;;;;;;;;;;;;;5061106;28;898;-63
2022/10/04 07:14:03;;;;;;;;;;;;;;;;;;5061277;28;693;-63
2022/10/04 07:16:33;;;;;;;;;;;;;;;;;;5060686;28;989;-63
2022/10/04 07:19:09;;;;;;;;;;;;;;;;;;5060944;28;1266;-63
2022/10/04 07:21:43;;;;;;;;;;;;;;;;;;5060877;28;1967;-63
2022/10/04 07:24:11;;;;;;;;;;;;;;;;;;5060887;28;972;-63
2022/10/04 07:26:37;;;;;;;;;;;;;;;;;;5060616;28;997;-63
2022/10/04 07:29:19;;;;;;;;;;;;;;;;;;5060713;28;1245;-63
2022/10/04 07:31:46;;;;;;;;;;;;;;;;;;5061053;28;829;-64
2022/10/04 07:34:25;;;;;;;;;;;;;;;;;;5060718;28;811;-63
2022/10/04 07:36:53;;;;;;;;;;;;;;;;;;5060749;28;814;-64
2022/10/04 07:39:37;;;;;;;;;;;;;;;;;;5060457;28;1250;-64
2022/10/04 07:42:13;;;;;;;;;;;;;;;;;;5060506;28;1890;-64
2022/10/04 07:44:40;;;;;;;;;;;;;;;;;;5062568;28;786;-64
2022/10/04 07:47:11;;;;;;;;;;;;;;;;;;5064305;28;795;-64
2022/10/04 07:49:38;;;;;;;;;;;;;;;;;;5063978;28;1199;-63
2022/10/04 07:52:21;;;;;;;;;;;;;;;;;;5064063;28;791;-64
2022/10/04 07:54:55;;;;;;;;;;;;;;;;;;5045904;28;827;-63
2022/10/04 07:57:26;;;;;;;;;;;;;;;;;;5064136;28;802;-64
2022/10/04 08:00:12;;;;;;;;;;;;;;;;;;5063741;28;1897;-64
2022/10/04 08:02:43;;;;;;;;;;;;;;;;;;5053177;28;1101;-64
2022/10/04 08:05:16;;;;;;;;;;;;;;;;;;5063755;28;887;-64
2022/10/04 08:07:45;;;;;;;;;;;;;;;;;;5064097;28;918;-67
2022/10/04 08:10:13;;;;;;;;;;;;;;;;;;5064223;28;1167;-67
2022/10/04 08:12:45;;;;;;;;;;;;;;;;;;5064030;28;989;-64
2022/10/04 08:15:13;;;;;;;;;;;;;;;;;;5063473;28;810;-64
2022/10/04 08:17:44;;;;;;;;;;;;;;;;;;5064012;28;891;-64
2022/10/04 08:20:41;;;;;;;;;;;;;;;;;;5063658;28;1893;-64
2022/10/04 08:23:16;;;;;;;;;;;;;;;;;;5029873;28;1262;-64
2022/10/04 08:26:01;;;;;;;;;;;;;;;;;;5063217;28;1056;-64
2022/10/04 08:31:30;;;;;;;;;;;;;;;;;;5063645;28;594;-67
2022/10/04 08:33:59;;;;;;;;;;;;;;;;;;5045639;28;1040;-67
2022/10/04 08:36:33;;;;;;;;;;;;;;;;;;5062992;28;1005;-67
2022/10/04 08:38:59;;;;;;;;;;;;;;;;;;5063354;28;1264;-67
2022/10/04 08:41:25;;;;;;;;;;;;;;;;;;5063330;28;2026;-67
2022/10/04 08:44:09;;;;;;;;;;;;;;;;;;5063578;28;831;-64
2022/10/04 08:47:02;;;;;;;;;;;;;;;;;;5061372;28;874;-64
2022/10/04 08:49:27;;;;;;;;;;;;;;;;;;5063441;28;1279;-64
2022/10/04 08:52:10;;;;;;;;;;;;;;;;;;5062953;28;898;-64
2022/10/04 08:54:35;;;;;;;;;;;;;;;;;;5063036;28;874;-64
2022/10/04 08:57:14;;;;;;;;;;;;;;;;;;5061867;28;969;-64
2022/10/04 08:59:39;;;;;;;;;;;;;;;;;;5063127;28;1160;-64
2022/10/04 09:02:16;;;;;;;;;;;;;;;;;;5062725;28;1882;-64
2022/10/04 09:04:44;;;;;;;;;;;;;;;;;;5062723;28;894;-64
2022/10/04 09:07:18;;;;;;;;;;;;;;;;;;5062636;28;882;-65
2022/10/04 09:09:55;;;;;;;;;;;;;;;;;;5062749;28;1260;-65
2022/10/04 09:12:41;;;;;;;;;;;;;;;;;;5062925;28;933;-65
2022/10/04 09:15:18;;;;;;;;;;;;;;;;;;5062545;28;898;-65
2022/10/04 09:17:46;;;;;;;;;;;;;;;;;;5063172;28;760;-65
2022/10/04 09:20:22;;;;;;;;;;;;;;;;;;5062897;28;1889;-65
2022/10/04 09:23:05;;;;;;;;;;;;;;;;;;5063055;28;847;-65
2022/10/04 09:25:39;;;;;;;;;;;;;;;;;;5062242;28;823;-66
2022/10/04 09:28:33;;;;;;;;;;;;;;;;;;5062607;28;898;-65
2022/10/04 09:31:17;;;;;;;;;;;;;;;;;;5062749;28;1203;-65
2022/10/04 09:34:01;;;;;;;;;;;;;;;;;;5062464;28;1033;-65
2022/10/04 09:36:41;;;;;;;;;;;;;;;;;;5062162;28;843;-65
2022/10/04 09:39:18;;;;;;;;;;;;;;;;;;5062306;28;1164;-65
2022/10/04 09:41:58;;;;;;;;;;;;;;;;;;5062232;28;1953;-65
2022/10/04 09:44:47;;;;;;;;;;;;;;;;;;5062000;28;879;-65
2022/10/04 09:47:30;;;;;;;;;;;;;;;;;;5062077;28;847;-65
2022/10/04 09:50:08;;;;;;;;;;;;;;;;;;5062214;28;1223;-65
2022/10/04 09:52:40;;;;;;;;;;;;;;;;;;5062284;28;929;-65
2022/10/04 09:55:16;;;;;;;;;;;;;;;;;;5061917;28;953;-65
2022/10/04 09:57:44;;;;;;;;;;;;;;;;;;5062163;28;840;-65
2022/10/04 10:00:22;;;;;;;;;;;;;;;;;;5061911;28;1961;-65
2022/10/04 10:03:12;;;;;;;;;;;;;;;;;;5062177;28;842;-65
2022/10/04 10:05:47;;;;;;;;;;;;;;;;;;5061763;28;788;-65
2022/10/04 10:08:33;;;;;;;;;;;;;;;;;;5061777;28;806;-65
2022/10/04 10:14:06;;;;;;;;;;;;;;;;;;5061863;28;664;-65
2022/10/04 10:16:31;;;;;;;;;;;;;;;;;;5062031;28;716;-65
2022/10/04 10:19:15;;;;;;;;;;;;;;;;;;5061896;28;1251;-65
2022/10/04 10:21:46;;;;;;;;;;;;;;;;;;5061889;28;1972;-65
2022/10/04 10:24:15;;;;;;;;;;;;;;;;;;5061584;28;938;-65
2022/10/04 10:26:46;;;;;;;;;;;;;;;;;;5061524;28;912;-65
2022/10/04 10:29:23;;;;;;;;;;;;;;;;;;5061854;28;1271;-65
2022/10/04 10:31:58;;;;;;;;;;;;;;;;;;5061695;28;1048;-65
2022/10/04 10:34:26;;;;;;;;;;;;;;;;;;5061321;28;823;-65
2022/10/04 10:37:00;;;;;;;;;;;;;;;;;;5061535;28;996;-65
2022/10/04 10:39:34;;;;;;;;;;;;;;;;;;5061443;28;1174;-65
2022/10/04 10:42:12;;;;;;;;;;;;;;;;;;5061594;28;1955;-65
2022/10/04 10:44:55;;;;;;;;;;;;;;;;;;5061140;28;878;-65
2022/10/04 10:47:33;;;;;;;;;;;;;;;;;;5049994;28;1089;-65
2022/10/04 10:50:13;;;;;;;;;;;;;;;;;;5040258;28;1172;-65
2022/10/04 10:52:41;;;;;;;;;;;;;;;;;;5041548;28;898;-65
2022/10/04 10:55:17;;;;;;;;;;;;;;;;;;5040793;28;949;-65
2022/10/04 10:58:00;;;;;;;;;;;;;;;;;;5041445;28;803;-65
2022/10/04 11:00:43;;;;;;;;;;;;;;;;;;5039970;28;1886;-65
2022/10/04 11:03:22;;;;;;;;;;;;;;;;;;5040127;28;1486;-65
2022/10/04 11:06:06;;;;;;;;;;;;;;;;;;5041125;28;917;-65
2022/10/04 11:08:49;;;;;;;;;;;;;;;;;;5041227;28;818;-65
2022/10/04 11:11:40;;;;;;;;;;;;;;;;;;5041019;28;930;-65
2022/10/04 11:14:11;;;;;;;;;;;;;;;;;;5041414;28;808;-65
2022/10/04 11:16:44;;;;;;;;;;;;;;;;;;5040732;28;909;-65
2022/10/04 11:19:22;;;;;;;;;;;;;;;;;;5040112;28;1275;-65
2022/10/04 11:22:06;;;;;;;;;;;;;;;;;;5040977;28;1898;-65
2022/10/04 11:24:55;;;;;;;;;;;;;;;;;;5040903;28;839;-65
2022/10/04 11:27:49;;;;;;;;;;;;;;;;;;5003616;28;1200;-65
2022/10/04 11:30:19;;;;;;;;;;;;;;;;;;4969664;28;1165;-65
2022/10/04 11:33:03;;;;;;;;;;;;;;;;;;5041038;28;890;-65
2022/10/04 11:35:43;;;;;;;;;;;;;;;;;;5040457;28;859;-65
2022/10/04 11:38:13;;;;;;;;;;;;;;;;;;5041004;28;957;-64
2022/10/04 11:40:57;;;;;;;;;;;;;;;;;;5040599;28;1926;-65
2022/10/04 11:43:34;;;;;;;;;;;;;;;;;;5041094;28;811;-65
2022/10/04 11:46:00;;;;;;;;;;;;;;;;;;5040542;28;871;-65
2022/10/04 11:48:34;;;;;;;;;;;;;;;;;;5040892;28;818;-65
2022/10/04 11:51:18;;;;;;;;;;;;;;;;;;5040663;28;1300;-65
2022/10/04 11:54:03;;;;;;;;;;;;;;;;;;5040677;28;1029;-65
2022/10/04 11:56:37;;;;;;;;;;;;;;;;;;5039532;28;1100;-65
2022/10/04 11:59:17;;;;;;;;;;;;;;;;;;5040594;28;1200;-65
2022/10/04 12:02:01;;;;;;;;;;;;;;;;;;5040337;28;1953;-64
2022/10/04 12:04:42;;;;;;;;;;;;;;;;;;5040465;28;882;-65
2022/10/04 12:07:08;;;;;;;;;;;;;;;;;;5040137;28;1009;-65
2022/10/04 12:10:03;;;;;;;;;;;;;;;;;;5039180;28;1196;-65
2022/10/04 12:12:37;;;;;;;;;;;;;;;;;;5023106;28;1311;-65
2022/10/04 12:15:14;;;;;;;;;;;;;;;;;;5040209;28;831;-65
2022/10/04 12:17:58;;;;;;;;;;;;;;;;;;5040212;28;1051;-65
2022/10/04 12:20:37;;;;;;;;;;;;;;;;;;5040024;28;1967;-65
2022/10/04 12:23:21;;;;;;;;;;;;;;;;;;5040288;28;838;-65
2022/10/04 12:25:52;;;;;;;;;;;;;;;;;;5040097;28;1036;-65
2022/10/04 12:28:23;;;;;;;;;;;;;;;;;;5040107;28;807;-65
2022/10/04 12:30:52;;;;;;;;;;;;;;;;;;5042147;28;1228;-65
2022/10/04 12:33:31;;;;;;;;;;;;;;;;;;5043184;28;905;-65
2022/10/04 12:36:01;;;;;;;;;;;;;;;;;;5043261;28;969;-65
2022/10/04 12:38:36;;;;;;;;;;;;;;;;;;5043473;28;817;-65
2022/10/04 12:41:23;;;;;;;;;;;;;;;;;;5070168;22;3796;-76
2022/10/04 12:44:10;;;;;;;;;;;;;;;;;;5063175;28;858;-75
2022/10/04 12:46:38;;;;;;;;;;;;;;;;;;5062144;28;918;-76
2022/10/04 12:49:03;;;;;;;;;;;;;;;;;;5062705;28;1176;-76
2022/10/04 12:51:41;;;;;;;;;;;;;;;;;;5062815;28;810;-75
2022/10/04 12:54:25;;;;;;;;;;;;;;;;;;5062555;28;910;-75
2022/10/04 12:56:53;;;;;;;;;;;;;;;;;;5060931;28;1295;-75
2022/10/04 12:59:24;;;;;;;;;;;;;;;;;;5044499;28;1382;-75
2022/10/04 13:02:21;;;;;;;;;;;;;;;;;;5062434;28;1953;-75
2022/10/04 13:04:48;;;;;;;;;;;;;;;;;;5044465;28;1036;-74
2022/10/04 13:07:13;;;;;;;;;;;;;;;;;;5062543;28;985;-77
2022/10/04 13:10:01;;;;;;;;;;;;;;;;;;5062160;28;1236;-77
2022/10/04 13:12:58;;;;;;;;;;;;;;;;;;5062207;28;1001;-75
2022/10/04 13:15:23;;;;;;;;;;;;;;;;;;5062118;28;803;-76
2022/10/04 13:17:59;;;;;;;;;;;;;;;;;;5062043;28;945;-75
2022/10/04 13:20:37;;;;;;;;;;;;;;;;;;5062230;28;1886;-75
2022/10/04 13:23:21;;;;;;;;;;;;;;;;;;5062107;28;1165;-75
2022/10/04 13:25:50;;;;;;;;;;;;;;;;;;5061722;28;973;-75
2022/10/04 13:28:19;;;;;;;;;;;;;;;;;;5062011;28;850;-76
2022/10/04 13:30:47;;;;;;;;;;;;;;;;;;5061965;28;1238;-75
2022/10/04 13:33:28;;;;;;;;;;;;;;;;;;5061977;28;827;-76
2022/10/04 13:36:02;;;;;;;;;;;;;;;;;;5061735;28;906;-76
2022/10/04 13:38:34;;;;;;;;;;;;;;;;;;5061921;28;878;-76
2022/10/04 13:41:16;;;;;;;;;;;;;;;;;;5061628;28;1898;-76
2022/10/04 13:43:41;;;;;;;;;;;;;;;;;;5061693;28;768;-76
2022/10/04 13:46:17;;;;;;;;;;;;;;;;;;5061401;28;996;-76
2022/10/04 13:48:53;;;;;;;;;;;;;;;;;;5061740;28;815;-76
2022/10/04 13:51:47;;;;;;;;;;;;;;;;;;5061619;28;1306;-76
2022/10/04 13:57:16;;;;;;;;;;;;;;;;;;5062196;28;664;-76
2022/10/04 13:59:51;;;;;;;;;;;;;;;;;;5061225;28;1258;-76
2022/10/04 14:02:41;;;;;;;;;;;;;;;;;;5061613;28;1944;-74
2022/10/04 14:05:17;;;;;;;;;;;;;;;;;;5061219;28;839;-75
2022/10/04 14:08:01;;;;;;;;;;;;;;;;;;5061604;28;885;-76
2022/10/04 14:10:41;;;;;;;;;;;;;;;;;;5059786;28;1164;-75
2022/10/04 14:13:17;;;;;;;;;;;;;;;;;;5061522;28;795;-76
2022/10/04 14:15:50;;;;;;;;;;;;;;;;;;5060981;28;787;-75
2022/10/04 14:18:30;;;;;;;;;;;;;;;;;;5061463;28;815;-75
2022/10/04 14:21:04;;;;;;;;;;;;;;;;;;5061211;28;1897;-75
2022/10/04 14:23:39;;;;;;;;;;;;;;;;;;5061192;28;788;-75
2022/10/04 14:26:07;;;;;;;;;;;;;;;;;;5061141;28;851;-75
2022/10/04 14:28:38;;;;;;;;;;;;;;;;;;5061276;28;870;-75
2022/10/04 14:31:12;;;;;;;;;;;;;;;;;;5061125;28;1121;-75
2022/10/04 14:33:46;;;;;;;;;;;;;;;;;;5061151;28;886;-74
2022/10/04 14:36:30;;;;;;;;;;;;;;;;;;5060873;28;740;-74
2022/10/04 14:39:12;;;;;;;;;;;;;;;;;;5061375;28;886;-75
2022/10/04 14:41:50;;;;;;;;;;;;;;;;;;5060723;28;1984;-74
2022/10/04 14:44:22;;;;;;;;;;;;;;;;;;5060852;28;823;-74
2022/10/04 14:46:50;;;;;;;;;;;;;;;;;;5060812;28;818;-74
2022/10/04 14:49:34;;;;;;;;;;;;;;;;;;5060875;28;1167;-75
2022/10/04 14:52:05;;;;;;;;;;;;;;;;;;5060723;28;913;-75
2022/10/04 14:54:33;;;;;;;;;;;;;;;;;;5059994;28;838;-74
2022/10/04 14:57:11;;;;;;;;;;;;;;;;;;5060476;28;826;-74
2022/10/04 14:59:54;;;;;;;;;;;;;;;;;;5060471;28;1242;-74
2022/10/04 15:02:37;;;;;;;;;;;;;;;;;;5060613;28;1961;-75
2022/10/04 15:05:21;;;;;;;;;;;;;;;;;;5042414;28;803;-75
2022/10/04 15:07:48;;;;;;;;;;;;;;;;;;5060460;28;909;-75
2022/10/04 15:10:28;;;;;;;;;;;;;;;;;;5060389;28;1204;-75
2022/10/04 15:12:59;;;;;;;;;;;;;;;;;;5060387;28;1060;-74
2022/10/04 15:15:30;;;;;;;;;;;;;;;;;;5060179;28;886;-75
2022/10/04 15:18:14;;;;;;;;;;;;;;;;;;5060438;28;1025;-75
2022/10/04 15:20:53;;;;;;;;;;;;;;;;;;5060106;28;1961;-75
2022/10/04 15:23:28;;;;;;;;;;;;;;;;;;5060503;28;953;-75
2022/10/04 15:25:56;;;;;;;;;;;;;;;;;;5059673;28;1444;-74
2022/10/04 15:28:39;;;;;;;;;;;;;;;;;;5060180;28;830;-75
2022/10/04 15:31:23;;;;;;;;;;;;;;;;;;5060022;28;1227;-74
2022/10/04 15:33:57;;;;;;;;;;;;;;;;;;5060299;28;819;-75
2022/10/04 15:36:22;;;;;;;;;;;;;;;;;;5041722;28;965;-75
2022/10/04 15:39:00;;;;;;;;;;;;;;;;;;5060359;28;819;-75
2022/10/04 15:41:31;;;;;;;;;;;;;;;;;;5059814;28;1973;-74
2022/10/04 15:44:12;;;;;;;;;;;;;;;;;;5060189;28;1052;-74
2022/10/04 15:46:49;;;;;;;;;;;;;;;;;;5059859;28;913;-75
2022/10/04 15:49:24;;;;;;;;;;;;;;;;;;5060300;28;1164;-75
2022/10/04 15:51:52;;;;;;;;;;;;;;;;;;5060011;28;834;-75
2022/10/04 15:54:33;;;;;;;;;;;;;;;;;;5060145;28;858;-75
2022/10/04 15:57:18;;;;;;;;;;;;;;;;;;5059788;28;681;-75
2022/10/04 15:59:55;;;;;;;;;;;;;;;;;;5049075;28;1244;-75
2022/10/04 16:02:40;;;;;;;;;;;;;;;;;;5059797;28;1914;-75
2022/10/04 16:05:19;;;;;;;;;;;;;;;;;;5060950;28;822;-75
2022/10/04 16:07:47;;;;;;;;;;;;;;;;;;5063105;28;814;-75
2022/10/04 16:10:13;;;;;;;;;;;;;;;;;;5063410;28;1204;-75
2022/10/04 16:12:57;;;;;;;;;;;;;;;;;;5063151;28;862;-75
2022/10/04 16:15:37;;;;;;;;;;;;;;;;;;5062936;28;786;-75
2022/10/04 16:18:04;;;;;;;;;;;;;;;;;;5062936;28;772;-75
2022/10/04 16:20:48;;;;;;;;;;;;;;;;;;5067436;28;1885;-75
2022/10/04 16:23:31;;;;;;;;;;;;;;;;;;5069046;28;885;-75
2022/10/04 16:25:58;;;;;;;;;;;;;;;;;;5062773;28;956;-75
2022/10/04 16:28:37;;;;;;;;;;;;;;;;;;5062913;28;803;-75
2022/10/04 16:31:21;;;;;;;;;;;;;;;;;;5062863;28;1310;-75
2022/10/04 16:33:53;;;;;;;;;;;;;;;;;;5062884;28;815;-75
2022/10/04 16:36:21;;;;;;;;;;;;;;;;;;5062832;28;855;-75
2022/10/04 16:41:41;;;;;;;;;;;;;;;;;;5062899;28;1897;-75
2022/10/04 16:44:22;;;;;;;;;;;;;;;;;;5062767;28;815;-75
2022/10/04 16:46:50;;;;;;;;;;;;;;;;;;5062685;28;969;-76
2022/10/04 16:49:35;;;;;;;;;;;;;;;;;;5062456;28;1199;-75
2022/10/04 16:52:01;;;;;;;;;;;;;;;;;;5063001;28;1048;-76
2022/10/04 16:54:36;;;;;;;;;;;;;;;;;;5062514;28;772;-75
2022/10/04 16:57:10;;;;;;;;;;;;;;;;;;5044713;28;1439;-75
2022/10/04 16:59:38;;;;;;;;;;;;;;;;;;5062359;28;1176;-76
2022/10/04 17:02:22;;;;;;;;;;;;;;;;;;5062677;28;1901;-75
2022/10/04 17:04:50;;;;;;;;;;;;;;;;;;5062256;28;1056;-76
2022/10/04 17:07:26;;;;;;;;;;;;;;;;;;5062493;28;874;-76
2022/10/04 17:09:55;;;;;;;;;;;;;;;;;;5062417;28;1176;-75
2022/10/04 17:12:36;;;;;;;;;;;;;;;;;;5062384;28;838;-75
2022/10/04 17:15:13;;;;;;;;;;;;;;;;;;5062335;28;823;-75
2022/10/04 17:17:44;;;;;;;;;;;;;;;;;;5061439;28;858;-75
2022/10/04 17:20:14;;;;;;;;;;;;;;;;;;5061820;28;1893;-75
2022/10/04 17:22:52;;;;;;;;;;;;;;;;;;5062248;28;1017;-75
2022/10/04 17:25:18;;;;;;;;;;;;;;;;;;5061993;28;815;-75
2022/10/04 17:27:52;;;;;;;;;;;;;;;;;;5062316;28;867;-75
2022/10/04 17:30:20;;;;;;;;;;;;;;;;;;5062005;28;1180;-75
2022/10/04 17:32:45;;;;;;;;;;;;;;;;;;5062109;28;830;-76
2022/10/04 17:35:36;;;;;;;;;;;;;;;;;;5061847;28;870;-76
2022/10/04 17:38:01;;;;;;;;;;;;;;;;;;5061860;28;2019;-75
2022/10/04 17:40:45;;;;;;;;;;;;;;;;;;5061398;28;1956;-75
2022/10/04 17:43:18;;;;;;;;;;;;;;;;;;5062011;28;796;-75
2022/10/04 17:45:58;;;;;;;;;;;;;;;;;;5061509;28;1064;-75
2022/10/04 17:56:50;;;;;;;;;;;;;;;;;;5061636;28;663;-75
2022/10/04 17:59:18;;;;;;;;;;;;;;;;;;5061875;28;1199;-75
2022/10/04 18:01:45;;;;;;;;;;;;;;;;;;5061568;28;1889;-75
2022/10/04 18:04:19;;;;;;;;;;;;;;;;;;5061542;28;1013;-74
2022/10/04 18:06:53;;;;;;;;;;;;;;;;;;5061456;28;857;-75
2022/10/04 18:09:42;;;;;;;;;;;;;;;;;;5061248;28;1199;-75
2022/10/04 18:12:16;;;;;;;;;;;;;;;;;;5053146;28;1351;-74
2022/10/04 18:14:49;;;;;;;;;;;;;;;;;;5060974;28;791;-75
2022/10/04 18:17:25;;;;;;;;;;;;;;;;;;5062206;28;783;-75
2022/10/04 18:20:00;;;;;;;;;;;;;;;;;;5061200;28;1109;-75
2022/10/04 18:22:26;;;;;;;;;;;;;;;;;;5061531;28;1893;-75